sensor_id;sensor_type;location;lat;lon;timestamp;pressure;altitude;pressure_sealevel;temperature;humidity
21730;BME280;11027;51.030;13.812;2024-02-04T00:00:03;100523.84;;;9.74;83.46
21730;BME280;11027;51.030;13.812;2024-02-04T00:02:30;100527.41;;;9.75;83.63
21730;BME280;11027;51.030;13.812;2024-02-04T00:04:55;100527.09;;;9.78;83.43
21730;BME280;11027;51.030;13.812;2024-02-04T00:07:20;100536.41;;;9.75;83.43
21730;BME280;11027;51.030;13.812;2024-02-04T00:09:46;100520.44;;;9.80;83.33
21730;BME280;11027;51.030;13.812;2024-02-04T00:12:11;100532.16;;;9.81;83.06
21730;BME280;11027;51.030;13.812;2024-02-04T00:14:37;100520.75;;;9.77;83.20
21730;BME280;11027;51.030;13.812;2024-02-04T00:17:02;100531.66;;;9.77;83.24
21730;BME280;11027;51.030;13.812;2024-02-04T00:19:27;100531.66;;;9.77;83.67
21730;BME280;11027;51.030;13.812;2024-02-04T00:21:53;100516.66;;;9.73;83.78
21730;BME280;11027;51.030;13.812;2024-02-04T00:24:18;100512.25;;;9.72;84.04
21730;BME280;11027;51.030;13.812;2024-02-04T00:26:44;100519.41;;;9.73;84.23
21730;BME280;11027;51.030;13.812;2024-02-04T00:29:09;100509.53;;;9.72;84.37
21730;BME280;11027;51.030;13.812;2024-02-04T00:31:35;100516.88;;;9.72;84.77
21730;BME280;11027;51.030;13.812;2024-02-04T00:34:00;100515.16;;;9.71;84.97
21730;BME280;11027;51.030;13.812;2024-02-04T00:36:26;100512.59;;;9.69;85.27
21730;BME280;11027;51.030;13.812;2024-02-04T00:38:51;100515.97;;;9.71;85.34
21730;BME280;11027;51.030;13.812;2024-02-04T00:41:16;100526.69;;;9.65;85.93
21730;BME280;11027;51.030;13.812;2024-02-04T00:43:41;100532.97;;;9.65;85.95
21730;BME280;11027;51.030;13.812;2024-02-04T00:46:07;100527.88;;;9.62;86.06
21730;BME280;11027;51.030;13.812;2024-02-04T00:48:35;100535.88;;;9.64;85.99
21730;BME280;11027;51.030;13.812;2024-02-04T00:51:00;100531.59;;;9.61;86.17
21730;BME280;11027;51.030;13.812;2024-02-04T00:53:25;100553.38;;;9.61;86.04
21730;BME280;11027;51.030;13.812;2024-02-04T00:55:53;100570.88;;;9.58;86.45
21730;BME280;11027;51.030;13.812;2024-02-04T00:58:18;100555.06;;;9.54;87.15
21730;BME280;11027;51.030;13.812;2024-02-04T01:00:43;100534.00;;;9.56;87.81
21730;BME280;11027;51.030;13.812;2024-02-04T01:03:08;100526.97;;;9.45;88.63
21730;BME280;11027;51.030;13.812;2024-02-04T01:05:34;100517.28;;;9.43;88.49
21730;BME280;11027;51.030;13.812;2024-02-04T01:07:59;100520.69;;;9.45;88.04
21730;BME280;11027;51.030;13.812;2024-02-04T01:10:25;100529.34;;;9.40;87.54
21730;BME280;11027;51.030;13.812;2024-02-04T01:12:50;100542.56;;;9.35;87.60
21730;BME280;11027;51.030;13.812;2024-02-04T01:15:16;100522.00;;;9.32;87.39
21730;BME280;11027;51.030;13.812;2024-02-04T01:17:41;100512.31;;;9.30;87.42
21730;BME280;11027;51.030;13.812;2024-02-04T01:20:07;100516.56;;;9.32;87.25
21730;BME280;11027;51.030;13.812;2024-02-04T01:22:32;100518.28;;;9.33;86.74
21730;BME280;11027;51.030;13.812;2024-02-04T01:24:57;100526.94;;;9.37;86.62
21730;BME280;11027;51.030;13.812;2024-02-04T01:27:23;100525.09;;;9.37;85.11
21730;BME280;11027;51.030;13.812;2024-02-04T01:29:48;100529.50;;;9.38;83.94
21730;BME280;11027;51.030;13.812;2024-02-04T01:32:13;100524.44;;;9.44;83.84
21730;BME280;11027;51.030;13.812;2024-02-04T01:34:39;100536.16;;;9.44;83.37
21730;BME280;11027;51.030;13.812;2024-02-04T01:37:04;100520.69;;;9.45;83.46
21730;BME280;11027;51.030;13.812;2024-02-04T01:39:29;100521.38;;;9.47;83.28
21730;BME280;11027;51.030;13.812;2024-02-04T01:41:54;100526.13;;;9.45;82.97
21730;BME280;11027;51.030;13.812;2024-02-04T01:44:20;100530.56;;;9.46;83.15
21730;BME280;11027;51.030;13.812;2024-02-04T01:46:47;100521.53;;;9.45;83.03
21730;BME280;11027;51.030;13.812;2024-02-04T01:49:12;100518.66;;;9.47;82.79
21730;BME280;11027;51.030;13.812;2024-02-04T01:51:38;100518.66;;;9.47;82.73
21730;BME280;11027;51.030;13.812;2024-02-04T01:54:04;100518.13;;;9.43;82.37
21730;BME280;11027;51.030;13.812;2024-02-04T01:56:30;100517.94;;;9.36;82.26
21730;BME280;11027;51.030;13.812;2024-02-04T01:58:56;100516.72;;;9.31;82.34
21730;BME280;11027;51.030;13.812;2024-02-04T02:01:23;100529.97;;;9.26;82.37
21730;BME280;11027;51.030;13.812;2024-02-04T02:03:48;100527.91;;;9.19;82.71
21730;BME280;11027;51.030;13.812;2024-02-04T02:06:15;100521.94;;;9.16;82.44
21730;BME280;11027;51.030;13.812;2024-02-04T02:08:41;100533.66;;;9.16;82.16
21730;BME280;11027;51.030;13.812;2024-02-04T02:11:11;100526.19;;;9.18;82.16
21730;BME280;11027;51.030;13.812;2024-02-04T02:13:41;100522.13;;;9.23;82.16
21730;BME280;11027;51.030;13.812;2024-02-04T02:16:13;100511.09;;;9.24;82.16
21730;BME280;11027;51.030;13.812;2024-02-04T02:18:52;100519.94;;;9.26;82.13
21730;BME280;11027;51.030;13.812;2024-02-04T02:26:51;100506.31;;;9.18;82.81
21730;BME280;11027;51.030;13.812;2024-02-04T02:29:18;100485.91;;;9.14;83.25
21730;BME280;11027;51.030;13.812;2024-02-04T02:31:43;100493.41;;;9.20;83.14
21730;BME280;11027;51.030;13.812;2024-02-04T02:34:09;100486.28;;;9.19;83.24
21730;BME280;11027;51.030;13.812;2024-02-04T02:36:44;100492.41;;;9.21;83.12
21730;BME280;11027;51.030;13.812;2024-02-04T02:39:16;100504.97;;;9.22;83.12
21730;BME280;11027;51.030;13.812;2024-02-04T02:41:42;100490.69;;;9.20;83.48
21730;BME280;11027;51.030;13.812;2024-02-04T02:44:09;100502.59;;;9.19;83.79
21730;BME280;11027;51.030;13.812;2024-02-04T02:46:36;100506.63;;;9.15;84.09
21730;BME280;11027;51.030;13.812;2024-02-04T02:49:02;100513.63;;;9.17;84.31
21730;BME280;11027;51.030;13.812;2024-02-04T02:51:27;100503.28;;;9.21;84.38
21730;BME280;11027;51.030;13.812;2024-02-04T02:53:52;100492.41;;;9.21;84.77
21730;BME280;11027;51.030;13.812;2024-02-04T02:56:18;100491.22;;;9.24;84.81
21730;BME280;11027;51.030;13.812;2024-02-04T02:58:43;100479.16;;;9.26;84.93
21730;BME280;11027;51.030;13.812;2024-02-04T03:01:08;100473.72;;;9.26;85.09
21730;BME280;11027;51.030;13.812;2024-02-04T03:03:33;100479.50;;;9.23;85.42
21730;BME280;11027;51.030;13.812;2024-02-04T03:05:59;100475.75;;;9.24;85.81
21730;BME280;11027;51.030;13.812;2024-02-04T03:08:24;100477.47;;;9.25;86.08
21730;BME280;11027;51.030;13.812;2024-02-04T03:10:49;100474.41;;;9.28;86.17
21730;BME280;11027;51.030;13.812;2024-02-04T03:13:15;100477.81;;;9.30;86.28
21730;BME280;11027;51.030;13.812;2024-02-04T03:15:40;100489.72;;;9.29;86.62
21730;BME280;11027;51.030;13.812;2024-02-04T03:18:07;100488.00;;;9.28;86.71
21730;BME280;11027;51.030;13.812;2024-02-04T03:20:32;100484.28;;;9.29;86.95
21730;BME280;11027;51.030;13.812;2024-02-04T03:22:58;100475.63;;;9.34;86.61
21730;BME280;11027;51.030;13.812;2024-02-04T03:25:23;100476.47;;;9.34;86.66
21730;BME280;11027;51.030;13.812;2024-02-04T03:27:51;100481.06;;;9.34;87.00
21730;BME280;11027;51.030;13.812;2024-02-04T03:30:17;100467.63;;;9.32;86.57
21730;BME280;11027;51.030;13.812;2024-02-04T03:32:43;100483.94;;;9.32;87.16
21730;BME280;11027;51.030;13.812;2024-02-04T03:35:08;100473.41;;;9.29;87.12
21730;BME280;11027;51.030;13.812;2024-02-04T03:37:33;100474.78;;;9.33;87.34
21730;BME280;11027;51.030;13.812;2024-02-04T03:39:58;100476.13;;;9.29;87.38
21730;BME280;11027;51.030;13.812;2024-02-04T03:42:24;100483.94;;;9.32;87.38
21730;BME280;11027;51.030;13.812;2024-02-04T03:44:49;100522.69;;;9.34;87.03
21730;BME280;11027;51.030;13.812;2024-02-04T03:47:14;100500.25;;;9.32;86.47
21730;BME280;11027;51.030;13.812;2024-02-04T03:49:40;100502.97;;;9.32;86.26
21730;BME280;11027;51.030;13.812;2024-02-04T03:52:05;100497.69;;;9.31;85.75
21730;BME280;11027;51.030;13.812;2024-02-04T03:54:30;100495.16;;;9.29;85.39
21730;BME280;11027;51.030;13.812;2024-02-04T03:56:55;100498.03;;;9.28;85.25
21730;BME280;11027;51.030;13.812;2024-02-04T03:59:21;100501.25;;;9.23;85.49
21730;BME280;11027;51.030;13.812;2024-02-04T04:01:47;100507.00;;;9.20;85.81
21730;BME280;11027;51.030;13.812;2024-02-04T04:04:13;100514.47;;;9.18;85.92
21730;BME280;11027;51.030;13.812;2024-02-04T04:06:38;100513.81;;;9.24;86.06
21730;BME280;11027;51.030;13.812;2024-02-04T04:09:03;100505.50;;;9.26;86.10
21730;BME280;11027;51.030;13.812;2024-02-04T04:11:29;100501.28;;;9.31;85.76
21730;BME280;11027;51.030;13.812;2024-02-04T04:13:54;100494.50;;;9.35;85.81
21730;BME280;11027;51.030;13.812;2024-02-04T04:16:22;100477.16;;;9.36;85.35
21730;BME280;11027;51.030;13.812;2024-02-04T04:18:48;100476.81;;;9.31;85.28
21730;BME280;11027;51.030;13.812;2024-02-04T04:21:13;100465.25;;;9.29;85.21
21730;BME280;11027;51.030;13.812;2024-02-04T04:23:38;100473.72;;;9.26;85.63
21730;BME280;11027;51.030;13.812;2024-02-04T04:26:04;100473.72;;;9.26;85.79
21730;BME280;11027;51.030;13.812;2024-02-04T04:28:29;100480.88;;;9.27;85.43
21730;BME280;11027;51.030;13.812;2024-02-04T04:30:54;100473.72;;;9.26;85.72
21730;BME280;11027;51.030;13.812;2024-02-04T04:33:20;100467.97;;;9.29;85.83
21730;BME280;11027;51.030;13.812;2024-02-04T04:35:45;100465.41;;;9.28;85.83
21730;BME280;11027;51.030;13.812;2024-02-04T04:38:10;100460.50;;;9.31;85.52
21730;BME280;11027;51.030;13.812;2024-02-04T04:40:35;100469.34;;;9.33;85.45
21730;BME280;11027;51.030;13.812;2024-02-04T04:43:01;100468.31;;;9.34;85.31
21730;BME280;11027;51.030;13.812;2024-02-04T04:45:26;100468.13;;;9.36;85.48
21730;BME280;11027;51.030;13.812;2024-02-04T04:47:51;100476.16;;;9.37;85.19
21730;BME280;11027;51.030;13.812;2024-02-04T04:50:16;100468.31;;;9.34;85.23
21730;BME280;11027;51.030;13.812;2024-02-04T04:52:42;100462.88;;;9.34;85.06
21730;BME280;11027;51.030;13.812;2024-02-04T04:55:07;100469.00;;;9.36;85.06
21730;BME280;11027;51.030;13.812;2024-02-04T04:57:32;100465.59;;;9.34;84.77
21730;BME280;11027;51.030;13.812;2024-02-04T04:59:58;100458.09;;;9.36;84.53
21730;BME280;11027;51.030;13.812;2024-02-04T05:02:25;100470.34;;;9.40;84.58
21730;BME280;11027;51.030;13.812;2024-02-04T05:04:51;100464.91;;;9.40;84.16
21730;BME280;11027;51.030;13.812;2024-02-04T05:07:16;100456.59;;;9.42;84.00
21730;BME280;11027;51.030;13.812;2024-02-04T05:09:41;100436.34;;;9.36;83.83
21730;BME280;11027;51.030;13.812;2024-02-04T05:12:08;100428.19;;;9.36;83.88
21730;BME280;11027;51.030;13.812;2024-02-04T05:14:33;100440.09;;;9.35;83.77
21730;BME280;11027;51.030;13.812;2024-02-04T05:16:59;100439.22;;;9.35;83.68
21730;BME280;11027;51.030;13.812;2024-02-04T05:19:24;100428.03;;;9.38;83.70
21730;BME280;11027;51.030;13.812;2024-02-04T05:21:49;100437.41;;;9.44;83.50
21730;BME280;11027;51.030;13.812;2024-02-04T05:24:14;100425.66;;;9.43;83.31
21730;BME280;11027;51.030;13.812;2024-02-04T05:26:40;100430.25;;;9.43;83.23
21730;BME280;11027;51.030;13.812;2024-02-04T05:29:05;100431.09;;;9.43;83.59
21730;BME280;11027;51.030;13.812;2024-02-04T05:31:30;100421.94;;;9.44;83.64
21730;BME280;11027;51.030;13.812;2024-02-04T05:33:56;100428.22;;;9.45;83.62
21730;BME280;11027;51.030;13.812;2024-02-04T05:36:21;100432.97;;;9.43;83.75
21730;BME280;11027;51.030;13.812;2024-02-04T05:38:46;100419.38;;;9.43;83.85
21730;BME280;11027;51.030;13.812;2024-02-04T05:41:11;100419.38;;;9.43;84.30
21730;BME280;11027;51.030;13.812;2024-02-04T05:43:37;100414.63;;;9.45;84.18
21730;BME280;11027;51.030;13.812;2024-02-04T05:46:02;100423.47;;;9.47;84.38
21730;BME280;11027;51.030;13.812;2024-02-04T05:48:27;100411.38;;;9.49;84.44
21730;BME280;11027;51.030;13.812;2024-02-04T05:50:53;100417.34;;;9.45;85.00
21730;BME280;11027;51.030;13.812;2024-02-04T05:53:18;100397.78;;;9.41;85.19
21730;BME280;11027;51.030;13.812;2024-02-04T05:55:43;100403.72;;;9.36;85.82
21730;BME280;11027;51.030;13.812;2024-02-04T05:58:09;100404.41;;;9.30;86.39
21730;BME280;11027;51.030;13.812;2024-02-04T06:00:34;100402.72;;;9.29;86.35
21730;BME280;11027;51.030;13.812;2024-02-04T06:02:59;100396.25;;;9.30;86.74
21730;BME280;11027;51.030;13.812;2024-02-04T06:05:24;100386.22;;;9.31;86.76
21730;BME280;11027;51.030;13.812;2024-02-04T06:07:50;100382.31;;;9.33;86.69
21730;BME280;11027;51.030;13.812;2024-02-04T06:10:15;100391.47;;;9.32;86.65
21730;BME280;11027;51.030;13.812;2024-02-04T06:12:40;100400.47;;;9.33;86.73
21730;BME280;11027;51.030;13.812;2024-02-04T06:15:13;100393.53;;;9.30;86.96
21730;BME280;11027;51.030;13.812;2024-02-04T06:17:39;100392.31;;;9.33;87.12
21730;BME280;11027;51.030;13.812;2024-02-04T06:20:05;100404.41;;;9.30;87.29
21730;BME280;11027;51.030;13.812;2024-02-04T06:22:30;100400.69;;;9.31;87.76
21730;BME280;11027;51.030;13.812;2024-02-04T06:24:55;100395.25;;;9.31;88.20
21730;BME280;11027;51.030;13.812;2024-02-04T06:27:21;100399.47;;;9.34;88.36
21730;BME280;11027;51.030;13.812;2024-02-04T06:29:46;100393.19;;;9.33;88.81
21730;BME280;11027;51.030;13.812;2024-02-04T06:32:11;100399.81;;;9.31;89.49
21730;BME280;11027;51.030;13.812;2024-02-04T06:34:38;100398.44;;;9.27;90.25
21730;BME280;11027;51.030;13.812;2024-02-04T06:37:03;100384.16;;;9.25;91.03
21730;BME280;11027;51.030;13.812;2024-02-04T06:39:28;100369.38;;;9.19;91.57
21730;BME280;11027;51.030;13.812;2024-02-04T06:41:54;100364.59;;;9.13;92.11
21730;BME280;11027;51.030;13.812;2024-02-04T06:44:19;100348.28;;;9.13;92.44
21730;BME280;11027;51.030;13.812;2024-02-04T06:46:44;100361.19;;;9.11;93.22
21730;BME280;11027;51.030;13.812;2024-02-04T06:49:10;100361.19;;;9.11;93.34
21730;BME280;11027;51.030;13.812;2024-02-04T06:51:35;100371.75;;;9.14;93.57
21730;BME280;11027;51.030;13.812;2024-02-04T06:54:01;100362.22;;;9.18;93.55
21730;BME280;11027;51.030;13.812;2024-02-04T06:56:26;100370.75;;;9.23;93.19
21730;BME280;11027;51.030;13.812;2024-02-04T06:58:51;100372.13;;;9.27;92.70
21730;BME280;11027;51.030;13.812;2024-02-04T07:01:16;100373.50;;;9.31;92.47
21730;BME280;11027;51.030;13.812;2024-02-04T07:03:42;100382.47;;;9.32;92.08
21730;BME280;11027;51.030;13.812;2024-02-04T07:06:07;100383.50;;;9.31;91.59
21730;BME280;11027;51.030;13.812;2024-02-04T07:08:32;100364.66;;;9.29;90.93
21730;BME280;11027;51.030;13.812;2024-02-04T07:10:58;100361.94;;;9.37;90.60
21730;BME280;11027;51.030;13.812;2024-02-04T07:13:23;100361.25;;;9.44;89.79
21730;BME280;11027;51.030;13.812;2024-02-04T07:15:48;100358.88;;;9.49;89.53
21730;BME280;11027;51.030;13.812;2024-02-04T07:18:13;100359.56;;;9.59;88.91
21730;BME280;11027;51.030;13.812;2024-02-04T07:20:39;100368.41;;;9.61;88.28
21730;BME280;11027;51.030;13.812;2024-02-04T07:23:05;100363.31;;;9.58;88.16
21730;BME280;11027;51.030;13.812;2024-02-04T07:25:30;100349.34;;;9.61;88.10
21730;BME280;11027;51.030;13.812;2024-02-04T07:27:56;100362.63;;;9.64;87.69
21730;BME280;11027;51.030;13.812;2024-02-04T07:30:22;100350.53;;;9.67;87.49
21730;BME280;11027;51.030;13.812;2024-02-04T07:32:47;100369.75;;;9.65;88.31
21730;BME280;11027;51.030;13.812;2024-02-04T07:35:13;100357.50;;;9.61;88.53
21730;BME280;11027;51.030;13.812;2024-02-04T07:37:38;100353.44;;;9.65;88.43
21730;BME280;11027;51.030;13.812;2024-02-04T07:40:04;100347.16;;;9.73;88.55
21730;BME280;11027;51.030;13.812;2024-02-04T07:42:32;100355.47;;;9.79;87.89
21730;BME280;11027;51.030;13.812;2024-02-04T07:44:58;100348.66;;;9.84;87.21
21730;BME280;11027;51.030;13.812;2024-02-04T07:47:24;100336.06;;;9.91;86.87
21730;BME280;11027;51.030;13.812;2024-02-04T07:49:49;100326.53;;;9.95;86.60
21730;BME280;11027;51.030;13.812;2024-02-04T07:52:14;100353.06;;;10.01;86.03
21730;BME280;11027;51.030;13.812;2024-02-04T07:54:40;100349.66;;;9.99;85.21
21730;BME280;11027;51.030;13.812;2024-02-04T07:57:05;100349.34;;;10.02;85.07
21730;BME280;11027;51.030;13.812;2024-02-04T07:59:31;100335.53;;;10.04;84.68
21730;BME280;11027;51.030;13.812;2024-02-04T08:01:56;100353.22;;;10.08;84.47
21730;BME280;11027;51.030;13.812;2024-02-04T08:04:21;100344.88;;;10.09;84.13
21730;BME280;11027;51.030;13.812;2024-02-04T08:06:47;100352.19;;;10.17;84.35
21730;BME280;11027;51.030;13.812;2024-02-04T08:09:12;100335.53;;;10.20;83.60
21730;BME280;11027;51.030;13.812;2024-02-04T08:11:37;100335.31;;;10.21;83.17
21730;BME280;11027;51.030;13.812;2024-02-04T08:14:03;100335.66;;;10.27;83.12
21730;BME280;11027;51.030;13.812;2024-02-04T08:16:28;100349.13;;;10.28;82.57
21730;BME280;11027;51.030;13.812;2024-02-04T08:18:53;100340.44;;;10.33;82.21
21730;BME280;11027;51.030;13.812;2024-02-04T08:21:19;100336.34;;;10.37;82.00
21730;BME280;11027;51.030;13.812;2024-02-04T08:23:44;100335.97;;;10.40;81.36
21730;BME280;11027;51.030;13.812;2024-02-04T08:26:09;100326.09;;;10.47;81.14
21730;BME280;11027;51.030;13.812;2024-02-04T08:28:35;100331.88;;;10.52;81.07
21730;BME280;11027;51.030;13.812;2024-02-04T08:31:00;100343.44;;;10.54;80.00
21730;BME280;11027;51.030;13.812;2024-02-04T08:33:25;100326.72;;;10.57;79.68
21730;BME280;11027;51.030;13.812;2024-02-04T08:35:50;100332.53;;;10.63;79.67
21730;BME280;11027;51.030;13.812;2024-02-04T08:38:16;100320.94;;;10.60;79.49
21730;BME280;11027;51.030;13.812;2024-02-04T08:40:41;100317.19;;;10.61;79.56
21730;BME280;11027;51.030;13.812;2024-02-04T08:43:06;100341.69;;;10.61;79.15
21730;BME280;11027;51.030;13.812;2024-02-04T08:45:31;100331.47;;;10.64;79.02
21730;BME280;11027;51.030;13.812;2024-02-04T08:47:57;100325.47;;;10.68;79.11
21730;BME280;11027;51.030;13.812;2024-02-04T08:50:22;100340.94;;;10.76;78.97
21730;BME280;11027;51.030;13.812;2024-02-04T08:52:47;100347.44;;;10.75;78.81
21730;BME280;11027;51.030;13.812;2024-02-04T08:55:13;100346.06;;;10.79;78.70
21730;BME280;11027;51.030;13.812;2024-02-04T08:57:38;100350.84;;;10.77;78.91
21730;BME280;11027;51.030;13.812;2024-02-04T09:00:05;100333.81;;;10.75;78.82
21730;BME280;11027;51.030;13.812;2024-02-04T09:02:34;100348.59;;;10.80;78.81
21730;BME280;11027;51.030;13.812;2024-02-04T09:04:59;100344.34;;;10.78;78.88
21730;BME280;11027;51.030;13.812;2024-02-04T09:07:25;100348.78;;;10.79;79.10
21730;BME280;11027;51.030;13.812;2024-02-04T09:09:50;100332.94;;;10.74;79.18
21730;BME280;11027;51.030;13.812;2024-02-04T09:12:15;100354.06;;;10.72;79.68
21730;BME280;11027;51.030;13.812;2024-02-04T09:14:40;100342.03;;;10.67;79.88
21730;BME280;11027;51.030;13.812;2024-02-04T09:17:06;100370.31;;;10.57;81.05
21730;BME280;11027;51.030;13.812;2024-02-04T09:19:32;100365.91;;;10.48;82.58
21730;BME280;11027;51.030;13.812;2024-02-04T09:21:57;100374.31;;;10.38;83.89
21730;BME280;11027;51.030;13.812;2024-02-04T09:24:22;100373.81;;;10.35;84.69
21730;BME280;11027;51.030;13.812;2024-02-04T09:26:48;100360.53;;;10.32;85.90
21730;BME280;11027;51.030;13.812;2024-02-04T09:29:13;100360.19;;;10.18;86.99
21730;BME280;11027;51.030;13.812;2024-02-04T09:31:38;100378.91;;;10.13;87.92
21730;BME280;11027;51.030;13.812;2024-02-04T09:34:03;100346.25;;;10.13;88.94
21730;BME280;11027;51.030;13.812;2024-02-04T09:36:29;100341.16;;;10.10;89.50
21730;BME280;11027;51.030;13.812;2024-02-04T09:38:54;100346.59;;;10.10;89.84
21730;BME280;11027;51.030;13.812;2024-02-04T09:41:21;100334.16;;;10.16;89.85
21730;BME280;11027;51.030;13.812;2024-02-04T09:43:48;100343.19;;;10.16;89.62
21730;BME280;11027;51.030;13.812;2024-02-04T09:46:14;100361.56;;;10.23;89.28
21730;BME280;11027;51.030;13.812;2024-02-04T09:48:40;100356.09;;;10.23;88.56
21730;BME280;11027;51.030;13.812;2024-02-04T09:51:06;100343.16;;;10.25;87.81
21730;BME280;11027;51.030;13.812;2024-02-04T09:53:33;100354.91;;;10.25;87.19
21730;BME280;11027;51.030;13.812;2024-02-04T09:56:01;100356.94;;;10.23;86.84
21730;BME280;11027;51.030;13.812;2024-02-04T09:58:27;100348.44;;;10.26;86.35
21730;BME280;11027;51.030;13.812;2024-02-04T10:00:53;100343.34;;;10.31;85.82
21730;BME280;11027;51.030;13.812;2024-02-04T10:03:19;100341.28;;;10.33;85.80
21730;BME280;11027;51.030;13.812;2024-02-04T10:05:44;100336.69;;;10.34;85.05
21730;BME280;11027;51.030;13.812;2024-02-04T10:08:10;100339.78;;;10.31;84.82
21730;BME280;11027;51.030;13.812;2024-02-04T10:10:35;100347.78;;;10.32;85.20
21730;BME280;11027;51.030;13.812;2024-02-04T10:13:06;100334.84;;;10.34;85.54
21730;BME280;11027;51.030;13.812;2024-02-04T10:15:31;100327.50;;;10.35;85.27
21730;BME280;11027;51.030;13.812;2024-02-04T10:17:57;100326.31;;;10.37;85.53
21730;BME280;11027;51.030;13.812;2024-02-04T10:20:22;100311.31;;;10.41;85.70
21730;BME280;11027;51.030;13.812;2024-02-04T10:22:47;100308.41;;;10.43;86.05
21730;BME280;11027;51.030;13.812;2024-02-04T10:25:14;100315.56;;;10.36;85.89
21730;BME280;11027;51.030;13.812;2024-02-04T10:27:42;100319.34;;;10.27;86.56
21730;BME280;11027;51.030;13.812;2024-02-04T10:30:07;100308.78;;;10.24;86.83
21730;BME280;11027;51.030;13.812;2024-02-04T10:32:33;100305.03;;;10.25;87.45
21730;BME280;11027;51.030;13.812;2024-02-04T10:34:59;100308.78;;;10.24;87.91
21730;BME280;11027;51.030;13.812;2024-02-04T10:37:26;100299.59;;;10.25;87.66
21730;BME280;11027;51.030;13.812;2024-02-04T10:39:51;100281.56;;;10.24;88.36
21730;BME280;11027;51.030;13.812;2024-02-04T10:42:17;100274.72;;;10.28;88.43
21730;BME280;11027;51.030;13.812;2024-02-04T10:44:45;100276.09;;;10.24;88.73
21730;BME280;11027;51.030;13.812;2024-02-04T10:47:16;100273.75;;;10.20;89.37
21730;BME280;11027;51.030;13.812;2024-02-04T10:49:46;100264.22;;;10.16;90.06
21730;BME280;11027;51.030;13.812;2024-02-04T10:52:13;100257.91;;;10.16;90.26
21730;BME280;11027;51.030;13.812;2024-02-04T10:54:39;100250.59;;;10.25;90.45
21730;BME280;11027;51.030;13.812;2024-02-04T10:57:09;100257.38;;;10.29;90.07
21730;BME280;11027;51.030;13.812;2024-02-04T10:59:37;100240.34;;;10.35;90.14
21730;BME280;11027;51.030;13.812;2024-02-04T11:02:05;100248.16;;;10.38;89.68
21730;BME280;11027;51.030;13.812;2024-02-04T11:04:31;100244.25;;;10.40;89.62
21730;BME280;11027;51.030;13.812;2024-02-04T11:06:58;100244.44;;;10.39;88.36
21730;BME280;11027;51.030;13.812;2024-02-04T11:09:26;100237.44;;;10.45;88.05
21730;BME280;11027;51.030;13.812;2024-02-04T11:11:53;100263.78;;;10.52;87.46
21730;BME280;11027;51.030;13.812;2024-02-04T11:14:20;100246.72;;;10.58;86.03
21730;BME280;11027;51.030;13.812;2024-02-04T11:24:44;100221.91;;;10.76;84.98
21730;BME280;11027;51.030;13.812;2024-02-04T11:27:15;100214.28;;;10.72;84.61
21730;BME280;11027;51.030;13.812;2024-02-04T11:29:41;100208.69;;;10.65;83.79
21730;BME280;11027;51.030;13.812;2024-02-04T11:32:06;100193.88;;;10.68;84.33
21730;BME280;11027;51.030;13.812;2024-02-04T11:34:32;100191.13;;;10.68;83.92
21730;BME280;11027;51.030;13.812;2024-02-04T11:36:58;100206.75;;;10.74;83.64
21730;BME280;11027;51.030;13.812;2024-02-04T11:39:24;100199.63;;;10.73;82.89
21730;BME280;11027;51.030;13.812;2024-02-04T11:41:50;100212.22;;;10.74;82.96
21730;BME280;11027;51.030;13.812;2024-02-04T11:44:22;100195.88;;;10.74;82.49
21730;BME280;11027;51.030;13.812;2024-02-04T11:46:50;100211.88;;;10.77;82.31
21730;BME280;11027;51.030;13.812;2024-02-04T11:49:17;100213.59;;;10.70;81.31
21730;BME280;11027;51.030;13.812;2024-02-04T11:51:46;100196.25;;;10.71;81.49
21730;BME280;11027;51.030;13.812;2024-02-04T11:54:14;100197.91;;;10.72;81.38
21730;BME280;11027;51.030;13.812;2024-02-04T11:56:41;100190.41;;;10.74;81.32
21730;BME280;11027;51.030;13.812;2024-02-04T11:59:06;100199.91;;;10.78;81.47
21730;BME280;11027;51.030;13.812;2024-02-04T12:01:33;100199.13;;;10.69;81.39
21730;BME280;11027;51.030;13.812;2024-02-04T12:04:09;100198.16;;;10.62;81.98
21730;BME280;11027;51.030;13.812;2024-02-04T12:06:34;100187.06;;;10.64;82.48
21730;BME280;11027;51.030;13.812;2024-02-04T12:09:00;100183.28;;;10.73;82.20
21730;BME280;11027;51.030;13.812;2024-02-04T12:11:25;100195.38;;;10.70;81.49
21730;BME280;11027;51.030;13.812;2024-02-04T12:13:51;100171.72;;;10.71;80.64
21730;BME280;11027;51.030;13.812;2024-02-04T12:16:16;100164.88;;;10.75;80.96
21730;BME280;11027;51.030;13.812;2024-02-04T12:18:48;100178.78;;;10.80;80.27
21730;BME280;11027;51.030;13.812;2024-02-04T12:21:14;100157.66;;;10.82;79.70
21730;BME280;11027;51.030;13.812;2024-02-04T12:23:40;100148.75;;;10.88;79.60
21730;BME280;11027;51.030;13.812;2024-02-04T12:26:05;100143.28;;;10.88;79.37
21730;BME280;11027;51.030;13.812;2024-02-04T12:28:30;100140.22;;;10.91;79.06
21730;BME280;11027;51.030;13.812;2024-02-04T12:30:56;100141.81;;;11.00;79.43
21730;BME280;11027;51.030;13.812;2024-02-04T12:33:23;100144.53;;;11.00;78.31
21730;BME280;11027;51.030;13.812;2024-02-04T12:35:52;100144.38;;;11.02;78.42
21730;BME280;11027;51.030;13.812;2024-02-04T12:38:17;100130.91;;;11.00;78.34
21730;BME280;11027;51.030;13.812;2024-02-04T12:40:42;100119.66;;;11.04;78.26
21730;BME280;11027;51.030;13.812;2024-02-04T12:43:10;100134.88;;;11.13;78.02
21730;BME280;11027;51.030;13.812;2024-02-04T12:45:36;100127.09;;;11.10;77.21
21730;BME280;11027;51.030;13.812;2024-02-04T12:48:02;100134.88;;;11.13;76.97
21730;BME280;11027;51.030;13.812;2024-02-04T12:50:28;100117.59;;;11.06;76.76